KVOK/VOK METAR and TAF weather

Enter ICAO airport designator
Station Type Date Time Source
KVOK METAR 2023/02/05 13:55 UTC NOAA

KVOK 051355Z 31006KT 6SM BR BKN200 M07/M07 A2982 RMK AO2A SLP115 4/005


Station Type Date Time Source
KVOK Decoded METAR 2023/02/05 13:55 UTC NOAA

Volk / Camp Douglas, WI, United States (KVOK) 43-56N 090-16W
Feb 05, 2023 - 08:55 AM EST / 2023.02.05 1355 UTC
Wind: from the NW (310 degrees) at 7 MPH (6 KT):0
Visibility: 6 mile(s):0
Sky conditions: mostly cloudy
Weather: mist; 5 inches of snow on ground
Temperature: 19 F (-7 C)
Windchill: 10 F (-12 C):1
Dew Point: 19 F (-7 C)
Relative Humidity: 100%
Pressure (altimeter): 29.82 in. Hg (1009 hPa)
ob: KVOK 051355Z 31006KT 6SM BR BKN200 M07/M07 A2982 RMK AO2A SLP115 4/005
cycle: 14

Station Type Date Time Source
KVOK TAF 2023/02/05 06:54 UTC NOAA

TAF
AMD KVOK 050631Z 0506/0523 25012KT 9999 BKN015 OVC030 630153 QNH2980INS
BECMG 0520/0521 VRB06KT 9999 BKN020 OVC030 630202 QNH3000INS TX00/0508Z TNM06/0517Z LAST NO
AMDS AFT 0506 NEXT 0609

Example: see airport list